Anchorage/Elmendorf AFB, Alaska
Current Conditions -  °F | °C
As of 12:28 AM on Sunday 26 Oct 2014 (Local Time) from PAED Reporting Station
Overcast Overcast  
Wind Chill: 23°   Ceiling: 14000
Heat Index: 28°   Visibility: 10mi
Dew Point: 27°   Wind: 5mph
Humidity: 93%   Direction: 70°ENE
Pressure: 29.81"   Gusts: NA
Location:  61.25°N, 149.79°W
Report Text: PAED 260828Z AUTO 07004KT 10SM SCT047 OVC140 M02/M03 A2981 RMK AO2
Loading
Personal Weather Stations






























Interactive Weather Map
Tropical Storm Tracking
New forecast layout! Learn more

10-Day Weather Forecast

Advertisements
Track Severe Weather on mobile